createdAt,value
2022-07-25T00:00:03.141Z,0.00
2022-07-25T00:00:35.583Z,0.00
2022-07-25T00:01:08.206Z,0.00
2022-07-25T00:01:34.546Z,0.00
2022-07-25T00:01:54.742Z,0.00
2022-07-25T00:02:26.036Z,0.00
2022-07-25T00:02:59.936Z,0.00
2022-07-25T00:03:30.040Z,0.00
2022-07-25T00:04:03.482Z,0.00
2022-07-25T00:04:34.050Z,0.00
2022-07-25T00:05:09.578Z,0.00
2022-07-25T00:05:37.982Z,0.00
2022-07-25T00:05:54.381Z,0.00
2022-07-25T00:06:25.998Z,0.00
2022-07-25T00:06:58.333Z,0.00
2022-07-25T00:07:30.393Z,0.00
2022-07-25T00:08:02.105Z,0.00
2022-07-25T00:08:35.007Z,0.00
2022-07-25T00:09:06.077Z,0.00
2022-07-25T00:09:34.587Z,0.00
2022-07-25T00:09:55.308Z,0.00
2022-07-25T00:10:27.815Z,0.00
2022-07-25T00:10:58.997Z,0.00
2022-07-25T00:11:30.945Z,0.00
2022-07-25T00:12:03.144Z,0.00
2022-07-25T00:12:34.783Z,0.00
2022-07-25T00:13:07.040Z,0.00
2022-07-25T00:13:33.867Z,0.00
2022-07-25T00:13:55.311Z,0.00
2022-07-25T00:14:27.954Z,0.00
2022-07-25T00:14:59.017Z,0.00
2022-07-25T00:15:30.401Z,0.00
2022-07-25T00:16:03.166Z,0.00
2022-07-25T00:16:39.098Z,0.00
2022-07-25T00:17:07.989Z,0.00
2022-07-25T00:17:35.030Z,0.00
2022-07-25T00:17:54.350Z,0.00
2022-07-25T00:18:26.047Z,0.00
2022-07-25T00:18:58.448Z,0.00
2022-07-25T00:19:30.064Z,0.00
2022-07-25T00:20:03.189Z,0.00
2022-07-25T00:20:33.989Z,0.00
2022-07-25T00:21:06.015Z,0.00
2022-07-25T00:21:34.051Z,0.00
2022-07-25T00:21:54.479Z,0.00
2022-07-25T00:22:27.859Z,0.00
2022-07-25T00:22:58.297Z,0.00
2022-07-25T00:23:34.904Z,0.00
2022-07-25T00:24:03.429Z,0.00
2022-07-25T00:24:34.593Z,0.00
2022-07-25T00:25:06.031Z,0.00
2022-07-25T00:25:33.986Z,0.00
2022-07-25T00:25:55.848Z,0.00
2022-07-25T00:26:26.035Z,0.00
2022-07-25T00:26:58.951Z,0.00
2022-07-25T00:27:30.048Z,0.00
2022-07-25T00:28:03.081Z,0.00
2022-07-25T00:28:34.680Z,0.00
2022-07-25T00:29:07.070Z,0.00
2022-07-25T00:29:34.028Z,0.00
2022-07-25T00:29:55.405Z,0.00
2022-07-25T00:30:26.040Z,0.00
2022-07-25T00:30:58.307Z,0.00
2022-07-25T00:31:30.702Z,0.00
2022-07-25T00:32:01.995Z,0.00
2022-07-25T00:32:33.961Z,0.00
2022-07-25T00:33:07.026Z,0.00
2022-07-25T00:33:36.108Z,0.00
2022-07-25T00:33:54.329Z,0.00
2022-07-25T00:34:27.667Z,0.00
2022-07-25T00:34:58.587Z,0.00
2022-07-25T00:35:30.007Z,0.00
2022-07-25T00:36:01.976Z,0.00
2022-07-25T00:36:36.267Z,0.00
2022-07-25T00:37:05.965Z,0.00
2022-07-25T00:37:35.556Z,0.00
2022-07-25T00:37:54.641Z,0.00
2022-07-25T00:38:26.005Z,0.00
2022-07-25T00:38:59.018Z,0.00
2022-07-25T00:39:30.022Z,0.00
2022-07-25T00:40:03.977Z,0.00
2022-07-25T00:40:34.597Z,0.00
2022-07-25T00:41:06.947Z,0.00
2022-07-25T00:41:33.733Z,0.00
2022-07-25T00:41:54.449Z,0.00
2022-07-25T00:42:25.972Z,0.00
2022-07-25T00:42:58.354Z,0.00
2022-07-25T00:43:29.992Z,0.00
2022-07-25T00:44:04.557Z,0.00
2022-07-25T00:44:33.750Z,0.00
2022-07-25T00:45:06.079Z,0.00
2022-07-25T00:45:34.861Z,0.00
2022-07-25T00:45:54.373Z,0.00
2022-07-25T00:46:26.946Z,0.00
2022-07-25T00:46:58.555Z,0.00
2022-07-25T00:47:30.894Z,0.00
2022-07-25T00:48:02.867Z,0.00
2022-07-25T00:48:35.951Z,0.00
2022-07-25T00:49:06.007Z,0.00
2022-07-25T00:49:34.613Z,0.00
2022-07-25T00:49:56.261Z,0.00
2022-07-25T00:50:26.915Z,0.00
2022-07-25T00:50:59.844Z,0.00
2022-07-25T00:51:29.993Z,0.00
2022-07-25T00:52:02.890Z,0.00
2022-07-25T00:52:33.701Z,0.00
2022-07-25T00:53:06.919Z,0.00
2022-07-25T00:53:34.726Z,0.00
2022-07-25T00:53:55.152Z,0.00
2022-07-25T00:54:25.989Z,0.00
2022-07-25T00:54:58.451Z,0.00
2022-07-25T00:55:29.981Z,0.00
2022-07-25T00:56:02.003Z,0.00
2022-07-25T00:56:34.684Z,0.00
2022-07-25T00:57:08.078Z,0.00
2022-07-25T00:57:36.759Z,0.00
2022-07-25T00:57:54.095Z,0.00
2022-07-25T00:58:26.976Z,0.00
2022-07-25T00:58:58.984Z,0.00
2022-07-25T00:59:30.924Z,0.00
2022-07-25T01:00:03.178Z,0.00
2022-07-25T01:00:34.963Z,0.00
2022-07-25T01:01:06.142Z,0.00
2022-07-25T01:01:33.991Z,0.00
2022-07-25T01:01:54.307Z,0.00
2022-07-25T01:02:26.075Z,0.00
2022-07-25T01:02:59.569Z,0.00
2022-07-25T01:03:30.036Z,0.00
2022-07-25T01:04:04.372Z,0.00
2022-07-25T01:04:33.719Z,0.00
2022-07-25T01:05:06.855Z,0.00
2022-07-25T01:05:34.765Z,0.00
2022-07-25T01:05:54.286Z,0.00
2022-07-25T01:06:25.989Z,0.00
2022-07-25T01:06:58.255Z,0.00
2022-07-25T01:07:29.996Z,0.00
2022-07-25T01:08:01.960Z,0.00
2022-07-25T01:08:33.715Z,0.00
2022-07-25T01:09:06.360Z,0.00
2022-07-25T01:09:35.898Z,0.00
2022-07-25T01:09:54.306Z,0.00
2022-07-25T01:10:25.977Z,0.00
2022-07-25T01:10:58.317Z,0.00
2022-07-25T01:11:29.956Z,0.00
2022-07-25T01:12:02.067Z,0.00
2022-07-25T01:12:34.778Z,0.00
2022-07-25T01:13:06.020Z,0.00
2022-07-25T01:13:33.698Z,0.00
2022-07-25T01:13:55.325Z,0.00
2022-07-25T01:14:25.970Z,0.00
2022-07-25T01:14:59.601Z,0.00
2022-07-25T01:15:30.093Z,0.00
2022-07-25T01:16:02.689Z,0.00
2022-07-25T01:16:33.681Z,0.00
2022-07-25T01:17:05.995Z,0.00
2022-07-25T01:17:33.667Z,0.00
2022-07-25T01:17:54.227Z,0.00
2022-07-25T01:18:27.901Z,0.00
2022-07-25T01:18:58.309Z,0.00
2022-07-25T01:19:31.097Z,0.00
2022-07-25T01:20:01.979Z,0.00
2022-07-25T01:20:34.877Z,0.00
2022-07-25T01:21:08.024Z,0.00
2022-07-25T01:21:35.175Z,0.00
2022-07-25T01:21:54.372Z,0.00
2022-07-25T01:22:25.983Z,0.00
2022-07-25T01:22:59.860Z,0.00
2022-07-25T01:23:29.979Z,0.00
2022-07-25T01:24:04.214Z,0.00
2022-07-25T01:24:33.701Z,0.00
2022-07-25T01:25:06.975Z,0.00
2022-07-25T01:25:33.672Z,0.00
2022-07-25T01:25:54.370Z,0.00
2022-07-25T01:26:25.964Z,0.00
2022-07-25T01:26:58.121Z,0.00
2022-07-25T01:27:29.983Z,0.00
2022-07-25T01:28:02.007Z,0.00
2022-07-25T01:28:33.699Z,0.00
2022-07-25T01:29:06.035Z,0.00
2022-07-25T01:29:34.757Z,0.00
2022-07-25T01:29:54.299Z,0.00
2022-07-25T01:30:27.879Z,0.00
2022-07-25T01:30:58.291Z,0.00
2022-07-25T01:31:30.868Z,0.00
2022-07-25T01:32:01.999Z,0.00
2022-07-25T01:32:34.957Z,0.00
2022-07-25T01:33:07.361Z,0.00
2022-07-25T01:33:33.678Z,0.00
2022-07-25T01:33:56.123Z,0.00
2022-07-25T01:34:26.486Z,0.00
2022-07-25T01:35:00.178Z,0.00
2022-07-25T01:35:29.976Z,0.00
2022-07-25T01:36:03.573Z,0.00
2022-07-25T01:36:33.700Z,0.00
2022-07-25T01:37:06.830Z,0.00
2022-07-25T01:37:33.701Z,0.00
2022-07-25T01:38:12.274Z,0.00
2022-07-25T01:38:34.750Z,0.00
2022-07-25T01:38:58.831Z,0.00
2022-07-25T01:39:30.019Z,0.00
2022-07-25T01:40:02.998Z,0.00
2022-07-25T01:40:33.665Z,0.00
2022-07-25T01:41:05.963Z,0.00
2022-07-25T01:41:33.692Z,0.00
2022-07-25T01:41:54.390Z,0.00
2022-07-25T01:42:27.478Z,0.00
2022-07-25T01:42:58.158Z,0.00
2022-07-25T01:43:34.351Z,0.00
2022-07-25T01:44:03.110Z,0.00
2022-07-25T01:44:34.886Z,0.00
2022-07-25T01:45:06.875Z,0.00
2022-07-25T01:45:33.738Z,0.00
2022-07-25T01:45:55.291Z,0.00
2022-07-25T01:46:26.114Z,0.00
2022-07-25T01:46:59.766Z,0.00
2022-07-25T01:47:29.947Z,0.00
2022-07-25T01:48:03.039Z,0.00
2022-07-25T01:48:33.748Z,0.00
2022-07-25T01:49:07.152Z,0.00
2022-07-25T01:49:33.701Z,0.00
2022-07-25T01:49:54.312Z,0.00
2022-07-25T01:50:26.058Z,0.00
2022-07-25T01:50:58.887Z,0.00
2022-07-25T01:51:29.949Z,0.00
2022-07-25T01:52:01.953Z,0.00
2022-07-25T01:52:33.651Z,0.00
2022-07-25T01:53:05.958Z,0.00
2022-07-25T01:53:34.838Z,0.00
2022-07-25T01:53:54.415Z,0.00
2022-07-25T01:54:32.594Z,0.00
2022-07-25T01:54:36.861Z,0.00
2022-07-25T01:54:58.214Z,0.00
2022-07-25T01:55:30.050Z,0.00
2022-07-25T01:56:02.863Z,0.00
2022-07-25T01:56:33.682Z,0.00
2022-07-25T01:57:06.009Z,0.00
2022-07-25T01:57:33.694Z,0.00
2022-07-25T01:57:55.252Z,0.00
2022-07-25T01:58:27.235Z,0.00
2022-07-25T01:58:58.880Z,0.00
2022-07-25T01:59:29.951Z,0.00
2022-07-25T02:00:02.977Z,0.00
2022-07-25T02:00:33.682Z,0.00
2022-07-25T02:01:06.951Z,0.00
2022-07-25T02:01:35.673Z,0.00
2022-07-25T02:01:54.429Z,0.00
2022-07-25T02:02:26.008Z,0.00
2022-07-25T02:02:59.866Z,0.00
2022-07-25T02:03:31.005Z,0.00
2022-07-25T02:04:03.059Z,0.00
2022-07-25T02:04:33.742Z,0.00
2022-07-25T02:05:08.082Z,0.00
2022-07-25T02:05:33.675Z,0.00
2022-07-25T02:05:54.266Z,0.00
2022-07-25T02:06:26.843Z,0.00
2022-07-25T02:06:59.164Z,0.00
2022-07-25T02:07:30.869Z,0.00
2022-07-25T02:08:01.992Z,0.00
2022-07-25T02:08:34.927Z,0.00
2022-07-25T02:09:05.907Z,0.00
2022-07-25T02:09:34.784Z,0.00
2022-07-25T02:09:57.001Z,0.00
2022-07-25T02:10:26.112Z,0.00
2022-07-25T02:10:59.845Z,0.00
2022-07-25T02:11:30.018Z,0.00
2022-07-25T02:12:03.760Z,0.00
2022-07-25T02:12:33.799Z,0.00
2022-07-25T02:13:06.849Z,0.00
2022-07-25T02:13:33.672Z,0.00
2022-07-25T02:13:54.284Z,0.00
2022-07-25T02:14:25.962Z,0.00
2022-07-25T02:14:57.956Z,0.00
2022-07-25T02:15:29.975Z,0.00
2022-07-25T02:16:01.976Z,0.00
2022-07-25T02:16:33.751Z,0.00
2022-07-25T02:17:06.045Z,0.00
2022-07-25T02:17:35.015Z,0.00
2022-07-25T02:17:54.312Z,0.00
2022-07-25T02:18:28.026Z,0.00
2022-07-25T02:18:57.970Z,0.00
2022-07-25T02:19:30.937Z,0.00
2022-07-25T02:20:01.943Z,0.00
2022-07-25T02:20:34.924Z,0.00
2022-07-25T02:21:13.286Z,0.00
2022-07-25T02:21:33.749Z,0.00
2022-07-25T02:21:55.233Z,0.00
2022-07-25T02:22:25.987Z,0.00
2022-07-25T02:22:58.939Z,0.00
2022-07-25T02:23:30.967Z,0.00
2022-07-25T02:24:03.233Z,0.00
2022-07-25T02:24:34.876Z,0.00
2022-07-25T02:25:06.824Z,0.00
2022-07-25T02:25:33.689Z,0.00
2022-07-25T02:25:54.282Z,0.00
2022-07-25T02:26:26.058Z,0.00
2022-07-25T02:26:57.946Z,0.00
2022-07-25T02:27:29.960Z,0.00
2022-07-25T02:28:02.997Z,0.00
2022-07-25T02:28:33.665Z,0.00
2022-07-25T02:29:05.899Z,0.00
2022-07-25T02:29:33.710Z,0.00
2022-07-25T02:29:54.387Z,0.00
2022-07-25T02:30:29.050Z,0.00
2022-07-25T02:30:59.101Z,0.00
2022-07-25T02:31:30.839Z,0.00
2022-07-25T02:32:01.990Z,0.00
2022-07-25T02:32:36.067Z,0.00
2022-07-25T02:33:05.962Z,0.00
2022-07-25T02:33:36.188Z,0.00
2022-07-25T02:33:55.061Z,0.00
2022-07-25T02:34:25.956Z,0.00
2022-07-25T02:34:59.023Z,0.00
2022-07-25T02:35:29.914Z,0.00
2022-07-25T02:36:01.985Z,0.00
2022-07-25T02:36:36.694Z,0.00
2022-07-25T02:37:05.934Z,0.00
2022-07-25T02:37:33.675Z,0.00
2022-07-25T02:37:54.293Z,0.00
2022-07-25T02:38:25.955Z,0.00
2022-07-25T02:39:00.509Z,0.00
2022-07-25T02:39:29.925Z,0.00
2022-07-25T02:40:03.010Z,0.00
2022-07-25T02:40:33.771Z,0.00
2022-07-25T02:41:07.833Z,0.00
2022-07-25T02:41:33.684Z,0.00
2022-07-25T02:41:53.884Z,0.00
2022-07-25T02:42:25.975Z,0.00
2022-07-25T02:42:57.898Z,0.00
2022-07-25T02:43:29.945Z,0.00
2022-07-25T02:44:02.940Z,0.00
2022-07-25T02:44:33.701Z,0.00
2022-07-25T02:45:05.921Z,0.00
2022-07-25T02:45:33.686Z,0.00
2022-07-25T02:45:54.004Z,0.00
2022-07-25T02:46:28.040Z,0.00
2022-07-25T02:46:57.972Z,0.00
2022-07-25T02:47:31.845Z,0.00
2022-07-25T02:48:02.032Z,0.00
2022-07-25T02:48:35.002Z,0.00
2022-07-25T02:49:06.069Z,0.00
2022-07-25T02:49:33.710Z,0.00
2022-07-25T02:49:53.924Z,0.00
2022-07-25T02:50:25.917Z,0.00
2022-07-25T02:50:59.000Z,0.00
2022-07-25T02:51:29.913Z,0.00
2022-07-25T02:52:03.681Z,0.00
2022-07-25T02:52:33.666Z,0.00
2022-07-25T02:53:06.839Z,0.00
2022-07-25T02:53:57.620Z,0.00
2022-07-25T02:54:27.243Z,0.00
2022-07-25T02:54:57.917Z,0.00
2022-07-25T02:55:29.933Z,0.00
2022-07-25T02:56:02.929Z,0.00
2022-07-25T02:56:34.486Z,0.00
2022-07-25T02:57:05.932Z,0.00
2022-07-25T02:57:33.828Z,0.00
2022-07-25T02:57:55.783Z,0.00
2022-07-25T02:58:26.822Z,0.00
2022-07-25T02:58:57.888Z,0.00
2022-07-25T02:59:32.379Z,0.00
2022-07-25T03:00:02.064Z,0.00
2022-07-25T03:00:35.110Z,0.00
2022-07-25T03:01:06.894Z,0.00
2022-07-25T03:01:34.825Z,0.00
2022-07-25T03:01:54.043Z,0.00
2022-07-25T03:02:25.891Z,0.00
2022-07-25T03:02:58.993Z,0.00
2022-07-25T03:03:30.462Z,0.00
2022-07-25T03:04:03.162Z,0.00
2022-07-25T03:04:33.802Z,0.00
2022-07-25T03:05:07.624Z,0.00
2022-07-25T03:05:35.962Z,0.00
2022-07-25T03:05:53.942Z,0.00
2022-07-25T03:06:25.899Z,0.00
2022-07-25T03:06:57.999Z,0.00
2022-07-25T03:07:29.926Z,0.00
2022-07-25T03:08:02.376Z,0.00
2022-07-25T03:08:33.722Z,0.00
2022-07-25T03:09:05.899Z,0.00
2022-07-25T03:09:35.753Z,0.00
2022-07-25T03:09:54.924Z,0.00
2022-07-25T03:10:26.829Z,0.00
2022-07-25T03:10:59.900Z,0.00
2022-07-25T03:11:32.254Z,0.00
2022-07-25T03:12:03.129Z,0.00
2022-07-25T03:12:35.014Z,0.00
2022-07-25T03:13:05.874Z,0.00
2022-07-25T03:13:35.685Z,0.00
2022-07-25T03:13:53.918Z,0.00
2022-07-25T03:14:25.965Z,0.00
2022-07-25T03:14:59.905Z,0.00
2022-07-25T03:15:29.932Z,0.00
2022-07-25T03:16:05.783Z,0.00
2022-07-25T03:16:35.232Z,0.00
2022-07-25T03:17:06.962Z,0.00
2022-07-25T03:17:33.683Z,0.00
2022-07-25T03:17:53.910Z,0.00
2022-07-25T03:18:25.901Z,0.00
2022-07-25T03:18:57.916Z,0.00
2022-07-25T03:19:30.915Z,0.00
2022-07-25T03:20:02.004Z,0.00
2022-07-25T03:20:34.774Z,0.00
2022-07-25T03:21:05.945Z,0.00
2022-07-25T03:21:35.689Z,0.00
2022-07-25T03:21:54.004Z,0.00
2022-07-25T03:22:27.692Z,0.00
2022-07-25T03:22:58.086Z,0.00
2022-07-25T03:23:31.770Z,0.00
2022-07-25T03:24:01.955Z,0.00
2022-07-25T03:24:35.045Z,0.00
2022-07-25T03:25:15.589Z,0.00
2022-07-25T03:25:33.690Z,0.00
2022-07-25T03:25:53.911Z,0.00
2022-07-25T03:26:26.983Z,0.00
2022-07-25T03:26:59.824Z,0.00
2022-07-25T03:27:30.797Z,0.00
2022-07-25T03:28:03.890Z,0.00
2022-07-25T03:28:34.986Z,0.00
2022-07-25T03:29:07.879Z,0.00
2022-07-25T03:29:33.740Z,0.00
2022-07-25T03:29:53.928Z,0.00
2022-07-25T03:30:26.937Z,0.00
2022-07-25T03:30:57.888Z,0.00
2022-07-25T03:31:30.115Z,0.00
2022-07-25T03:32:02.919Z,0.00
2022-07-25T03:32:33.679Z,0.00
2022-07-25T03:33:05.919Z,0.00
2022-07-25T03:33:36.394Z,0.00
2022-07-25T03:33:53.929Z,0.00
2022-07-25T03:34:26.918Z,0.00
2022-07-25T03:34:57.917Z,0.00
2022-07-25T03:35:29.929Z,0.00
2022-07-25T03:36:01.915Z,0.00
2022-07-25T03:36:35.004Z,0.00
2022-07-25T03:37:05.939Z,0.00
2022-07-25T03:37:33.689Z,0.00
2022-07-25T03:37:53.968Z,0.00
2022-07-25T03:38:26.913Z,0.00
2022-07-25T03:38:59.113Z,0.00
2022-07-25T03:39:31.977Z,0.00
2022-07-25T03:40:02.978Z,0.00
2022-07-25T03:40:33.689Z,0.00
2022-07-25T03:41:07.811Z,0.00
2022-07-25T03:41:33.677Z,0.00
2022-07-25T03:41:53.895Z,0.00
2022-07-25T03:42:26.826Z,0.00
2022-07-25T03:42:59.746Z,0.00
2022-07-25T03:43:31.417Z,0.00
2022-07-25T03:44:03.437Z,0.00
2022-07-25T03:44:35.209Z,0.85
2022-07-25T03:45:05.992Z,0.00
2022-07-25T03:45:33.897Z,0.85
2022-07-25T03:45:54.818Z,0.36
2022-07-25T03:46:25.959Z,0.36
2022-07-25T03:46:59.960Z,0.85
2022-07-25T03:47:29.980Z,0.36
2022-07-25T03:48:02.849Z,0.36
2022-07-25T03:48:33.766Z,0.36
2022-07-25T03:49:08.122Z,1.22
2022-07-25T03:49:33.759Z,1.71
2022-07-25T03:49:55.873Z,1.22
2022-07-25T03:50:25.941Z,1.22
2022-07-25T03:50:59.470Z,1.71
2022-07-25T03:51:29.924Z,2.08
2022-07-25T03:52:02.012Z,2.08
2022-07-25T03:52:35.531Z,2.08
2022-07-25T03:53:06.022Z,2.08
2022-07-25T03:53:33.763Z,2.08
2022-07-25T03:53:54.839Z,2.94
2022-07-25T03:54:27.028Z,2.57
2022-07-25T03:54:57.938Z,2.94
2022-07-25T03:55:30.887Z,2.57
2022-07-25T03:56:01.985Z,3.79
2022-07-25T03:56:35.848Z,3.43
2022-07-25T03:57:05.988Z,3.79
2022-07-25T03:57:33.742Z,3.79
2022-07-25T03:57:54.071Z,3.43
2022-07-25T03:58:26.028Z,4.28
2022-07-25T03:58:59.080Z,4.77
2022-07-25T03:59:30.062Z,4.77
2022-07-25T04:00:04.897Z,4.28
2022-07-25T04:00:35.691Z,3.79
2022-07-25T04:01:14.022Z,3.79
2022-07-25T04:01:23.308Z,4.77
2022-07-25T04:01:41.683Z,5.14
2022-07-25T04:02:09.977Z,5.99
2022-07-25T04:02:33.780Z,5.63
2022-07-25T04:02:57.899Z,5.63
2022-07-25T04:03:31.894Z,5.99
2022-07-25T04:04:01.927Z,5.63
2022-07-25T04:04:36.105Z,6.48
2022-07-25T04:05:05.911Z,5.63
2022-07-25T04:05:34.896Z,6.85
2022-07-25T04:06:12.079Z,6.48
2022-07-25T04:06:33.695Z,7.34
2022-07-25T04:06:59.285Z,7.70
2022-07-25T04:07:32.103Z,7.70
2022-07-25T04:08:02.941Z,7.34
2022-07-25T04:08:33.752Z,7.34
2022-07-25T04:09:07.012Z,8.56
2022-07-25T04:09:33.924Z,7.70
2022-07-25T04:09:53.994Z,9.05
2022-07-25T04:10:25.924Z,9.05
2022-07-25T04:10:57.913Z,9.54
2022-07-25T04:11:29.885Z,9.91
2022-07-25T04:12:03.001Z,9.91
2022-07-25T04:12:35.273Z,9.91
2022-07-25T04:13:06.030Z,9.91
2022-07-25T04:13:34.861Z,9.91
2022-07-25T04:13:53.884Z,10.77
2022-07-25T04:14:27.019Z,10.77
2022-07-25T04:14:57.937Z,10.77
2022-07-25T04:15:30.892Z,10.39
2022-07-25T04:16:01.895Z,11.62
2022-07-25T04:16:35.061Z,11.62
2022-07-25T04:17:06.944Z,12.11
2022-07-25T04:17:35.249Z,11.62
2022-07-25T04:17:53.899Z,12.48
2022-07-25T04:18:28.561Z,12.48
2022-07-25T04:19:01.630Z,12.48
2022-07-25T04:19:33.048Z,12.97
2022-07-25T04:20:02.795Z,13.33
2022-07-25T04:20:33.725Z,13.33
2022-07-25T04:21:07.921Z,13.82
2022-07-25T04:21:33.742Z,13.82
2022-07-25T04:21:53.952Z,13.82
2022-07-25T04:22:25.885Z,14.31
2022-07-25T04:22:58.913Z,14.68
2022-07-25T04:23:29.929Z,14.68
2022-07-25T04:24:01.982Z,15.53
2022-07-25T04:24:33.791Z,15.17
2022-07-25T04:25:05.917Z,16.02
2022-07-25T04:25:33.837Z,16.02
2022-07-25T04:25:53.964Z,16.39
2022-07-25T04:26:26.837Z,16.88
2022-07-25T04:26:57.954Z,16.88
2022-07-25T04:27:31.396Z,16.39
2022-07-25T04:28:01.996Z,17.25
2022-07-25T04:28:35.420Z,16.39
2022-07-25T04:29:07.077Z,17.73
2022-07-25T04:29:33.822Z,18.11
2022-07-25T04:29:54.870Z,18.11
2022-07-25T04:30:25.939Z,18.11
2022-07-25T04:30:59.052Z,19.08
2022-07-25T04:31:29.947Z,19.08
2022-07-25T04:32:03.028Z,18.11
2022-07-25T04:32:34.908Z,19.45
2022-07-25T04:33:07.654Z,19.94
2022-07-25T04:33:33.770Z,19.94
2022-07-25T04:33:53.883Z,19.94
2022-07-25T04:34:27.071Z,19.94
2022-07-25T04:34:57.926Z,19.94
2022-07-25T04:35:32.209Z,19.94
2022-07-25T04:36:01.984Z,20.80
2022-07-25T04:36:34.323Z,21.16
2022-07-25T04:37:05.855Z,21.16
2022-07-25T04:37:35.694Z,20.80
2022-07-25T04:37:53.886Z,20.80
2022-07-25T04:38:26.812Z,22.02
2022-07-25T04:38:58.000Z,22.02
2022-07-25T04:39:31.949Z,22.51
2022-07-25T04:40:01.954Z,22.51
2022-07-25T04:40:35.432Z,22.87
2022-07-25T04:41:05.988Z,22.51
2022-07-25T04:41:34.966Z,23.36
2022-07-25T04:41:54.741Z,22.87
2022-07-25T04:42:25.876Z,23.85
2022-07-25T04:42:59.775Z,23.85
2022-07-25T04:43:29.966Z,23.85
2022-07-25T04:44:03.186Z,23.85
2022-07-25T04:44:33.762Z,24.22
2022-07-25T04:45:07.871Z,24.71
2022-07-25T04:45:33.840Z,24.71
2022-07-25T04:45:54.227Z,25.56
2022-07-25T04:46:26.993Z,25.07
2022-07-25T04:46:57.911Z,25.56
2022-07-25T04:47:30.284Z,24.71
2022-07-25T04:48:01.960Z,25.94
2022-07-25T04:48:34.964Z,26.42
2022-07-25T04:49:07.069Z,26.42
2022-07-25T04:49:34.097Z,25.94
2022-07-25T04:49:53.914Z,26.42
2022-07-25T04:50:27.717Z,26.79
2022-07-25T04:50:57.940Z,27.28
2022-07-25T04:51:35.805Z,26.42
2022-07-25T04:52:01.931Z,27.28
2022-07-25T04:52:34.153Z,27.28
2022-07-25T04:53:05.868Z,27.65
2022-07-25T04:53:33.781Z,27.65
2022-07-25T04:53:55.584Z,27.65
2022-07-25T04:54:25.875Z,28.14
2022-07-25T04:54:59.261Z,28.63
2022-07-25T04:55:31.936Z,28.63
2022-07-25T04:56:02.782Z,27.65
2022-07-25T04:56:33.773Z,28.99
2022-07-25T04:57:09.770Z,29.48
2022-07-25T04:57:34.794Z,29.48
2022-07-25T04:57:54.890Z,29.48
2022-07-25T04:58:25.929Z,29.48
2022-07-25T04:59:03.134Z,29.48
2022-07-25T04:59:29.892Z,28.99
2022-07-25T05:00:02.195Z,30.70
2022-07-25T05:00:33.883Z,29.85
2022-07-25T05:01:08.088Z,30.70
2022-07-25T05:01:33.819Z,30.34
2022-07-25T05:01:54.858Z,30.70
2022-07-25T05:02:25.957Z,30.70
2022-07-25T05:02:57.937Z,30.70
2022-07-25T05:03:29.873Z,30.70
2022-07-25T05:04:01.943Z,31.19
2022-07-25T05:04:33.756Z,31.56
2022-07-25T05:05:05.880Z,31.56
2022-07-25T05:05:33.775Z,31.56
2022-07-25T05:05:54.828Z,31.19
2022-07-25T05:06:26.757Z,31.56
2022-07-25T05:06:59.154Z,32.05
2022-07-25T05:07:29.913Z,32.42
2022-07-25T05:08:02.769Z,32.42
2022-07-25T05:08:34.153Z,32.90
2022-07-25T05:09:06.914Z,33.39
2022-07-25T05:09:35.358Z,32.90
2022-07-25T05:09:53.920Z,33.39
2022-07-25T05:10:25.917Z,33.76
2022-07-25T05:10:57.905Z,33.39
2022-07-25T05:11:29.946Z,33.76
2022-07-25T05:12:01.986Z,33.76
2022-07-25T05:12:33.714Z,34.25
2022-07-25T05:13:05.894Z,33.76
2022-07-25T05:13:33.695Z,34.25
2022-07-25T05:13:54.307Z,33.39
2022-07-25T05:14:27.804Z,34.25
2022-07-25T05:14:57.946Z,34.25
2022-07-25T05:15:31.792Z,34.25
2022-07-25T05:16:02.040Z,35.11
2022-07-25T05:16:36.267Z,35.11
2022-07-25T05:17:05.893Z,35.11
2022-07-25T05:17:33.756Z,35.48
2022-07-25T05:17:53.863Z,35.48
2022-07-25T05:18:25.900Z,35.97
2022-07-25T05:18:59.050Z,35.97
2022-07-25T05:19:30.893Z,35.48
2022-07-25T05:20:02.854Z,35.11
2022-07-25T05:20:33.705Z,35.97
2022-07-25T05:21:06.909Z,36.33
2022-07-25T05:21:35.578Z,35.97
2022-07-25T05:21:53.846Z,36.82
2022-07-25T05:22:28.603Z,36.33
2022-07-25T05:22:57.892Z,36.82
2022-07-25T05:23:29.865Z,36.82
2022-07-25T05:24:01.917Z,36.82
2022-07-25T05:24:33.771Z,36.33
2022-07-25T05:25:06.882Z,37.19
2022-07-25T05:25:33.749Z,37.19
2022-07-25T05:25:53.903Z,37.68
2022-07-25T05:26:27.716Z,38.17
2022-07-25T05:26:57.883Z,37.68
2022-07-25T05:27:30.822Z,37.19
2022-07-25T05:28:01.892Z,38.17
2022-07-25T05:28:36.792Z,38.17
2022-07-25T05:29:05.857Z,37.68
2022-07-25T05:29:33.740Z,38.53
2022-07-25T05:29:53.923Z,39.02
2022-07-25T05:30:26.772Z,38.53
2022-07-25T05:30:59.429Z,38.53
2022-07-25T05:31:29.858Z,38.17
2022-07-25T05:32:06.797Z,39.02
2022-07-25T05:32:33.711Z,38.53
2022-07-25T05:33:05.921Z,39.02
2022-07-25T05:33:33.757Z,39.02
2022-07-25T05:33:53.819Z,39.02
2022-07-25T05:34:26.794Z,39.02
2022-07-25T05:34:57.926Z,39.39
2022-07-25T05:35:36.073Z,39.39
2022-07-25T05:35:39.071Z,39.39
2022-07-25T05:36:04.789Z,39.39
2022-07-25T05:36:33.696Z,39.02
2022-07-25T05:37:05.801Z,39.88
2022-07-25T05:37:33.780Z,40.24
2022-07-25T05:37:54.720Z,40.73
2022-07-25T05:38:25.875Z,40.73
2022-07-25T05:38:59.060Z,40.73
2022-07-25T05:39:29.832Z,40.73
2022-07-25T05:40:02.876Z,41.10
2022-07-25T05:40:33.753Z,40.73
2022-07-25T05:41:06.701Z,41.10
2022-07-25T05:41:33.725Z,41.59
2022-07-25T05:41:53.860Z,41.59
2022-07-25T05:42:25.837Z,41.96
2022-07-25T05:43:02.714Z,42.45
2022-07-25T05:43:29.836Z,42.45
2022-07-25T05:44:01.866Z,41.59
2022-07-25T05:44:33.726Z,41.96
2022-07-25T05:45:05.894Z,42.45
2022-07-25T05:45:33.731Z,42.45
2022-07-25T05:45:53.894Z,43.31
2022-07-25T05:46:27.966Z,43.80
2022-07-25T05:47:00.276Z,44.16
2022-07-25T05:47:30.752Z,45.02
2022-07-25T05:48:01.967Z,46.73
2022-07-25T05:48:36.687Z,47.22
2022-07-25T05:49:06.812Z,49.42
2022-07-25T05:49:33.726Z,48.93
2022-07-25T05:49:53.851Z,48.56
2022-07-25T05:50:25.896Z,45.87
2022-07-25T05:50:59.871Z,45.02
2022-07-25T05:51:30.830Z,43.80
2022-07-25T05:52:02.896Z,44.65
2022-07-25T05:52:35.052Z,44.16
2022-07-25T05:53:07.772Z,44.65
2022-07-25T05:53:34.995Z,45.02
2022-07-25T05:53:53.793Z,45.02
2022-07-25T05:54:25.863Z,45.51
2022-07-25T05:54:57.917Z,46.73
2022-07-25T05:55:29.844Z,53.34
2022-07-25T05:56:02.779Z,48.07
2022-07-25T05:56:35.124Z,51.14
2022-07-25T05:57:05.782Z,47.22
2022-07-25T05:57:34.635Z,47.22
2022-07-25T05:57:54.644Z,45.87
2022-07-25T05:58:29.697Z,46.36
2022-07-25T05:58:59.699Z,45.87
2022-07-25T05:59:29.794Z,45.51
2022-07-25T06:00:02.861Z,45.87
2022-07-25T06:00:35.366Z,46.73
2022-07-25T06:01:06.734Z,46.36
2022-07-25T06:01:42.603Z,46.36
2022-07-25T06:02:11.379Z,46.73
2022-07-25T06:02:36.740Z,46.73
2022-07-25T06:02:58.022Z,46.36
2022-07-25T06:03:32.538Z,46.73
2022-07-25T06:04:01.907Z,47.22
2022-07-25T06:04:35.585Z,46.73
2022-07-25T06:05:05.886Z,46.73
2022-07-25T06:05:33.747Z,47.22
2022-07-25T06:05:55.815Z,48.07
2022-07-25T06:06:28.917Z,48.07
2022-07-25T06:06:57.812Z,47.71
2022-07-25T06:07:35.955Z,47.71
2022-07-25T06:07:49.457Z,48.56
2022-07-25T06:08:17.889Z,48.93
2022-07-25T06:08:49.814Z,48.07
2022-07-25T06:09:22.478Z,48.56
2022-07-25T06:09:39.617Z,48.93
2022-07-25T06:10:11.031Z,48.07
2022-07-25T06:10:33.754Z,48.56
2022-07-25T06:10:57.769Z,48.93
2022-07-25T06:11:30.948Z,49.42
2022-07-25T06:12:01.927Z,48.93
2022-07-25T06:12:36.664Z,48.93
2022-07-25T06:13:05.756Z,49.42
2022-07-25T06:13:33.732Z,49.79
2022-07-25T06:13:53.829Z,49.79
2022-07-25T06:14:25.858Z,49.42
2022-07-25T06:14:58.461Z,50.65
2022-07-25T06:15:29.817Z,49.79
2022-07-25T06:16:02.393Z,51.14
2022-07-25T06:16:33.848Z,50.28
2022-07-25T06:17:06.270Z,50.65
2022-07-25T06:17:34.162Z,50.65
2022-07-25T06:17:54.733Z,51.14
2022-07-25T06:18:25.824Z,50.65
2022-07-25T06:18:57.909Z,52.48
2022-07-25T06:19:29.801Z,51.50
2022-07-25T06:20:02.001Z,52.48
2022-07-25T06:20:33.789Z,51.14
2022-07-25T06:21:06.874Z,51.14
2022-07-25T06:21:33.743Z,51.14
2022-07-25T06:21:53.740Z,51.50
2022-07-25T06:22:26.312Z,51.99
2022-07-25T06:22:58.039Z,51.99
2022-07-25T06:23:30.268Z,51.99
2022-07-25T06:24:01.873Z,51.50
2022-07-25T06:24:34.484Z,52.85
2022-07-25T06:25:05.758Z,51.99
2022-07-25T06:25:33.689Z,53.34
2022-07-25T06:25:53.806Z,52.48
2022-07-25T06:26:25.886Z,51.99
2022-07-25T06:26:58.273Z,53.70
2022-07-25T06:27:30.925Z,52.85
2022-07-25T06:28:03.809Z,53.34
2022-07-25T06:28:33.696Z,53.70
2022-07-25T06:29:06.222Z,53.70
2022-07-25T06:29:33.702Z,53.70
2022-07-25T06:29:53.849Z,54.19
2022-07-25T06:30:26.012Z,55.41
2022-07-25T06:30:58.618Z,55.41
2022-07-25T06:31:29.864Z,58.11
2022-07-25T06:32:02.790Z,64.59
2022-07-25T06:32:33.787Z,62.02
2022-07-25T06:33:05.756Z,61.17